Time;durP1;ratioP1;P1;durP2;ratioP2;P2;SDS_P1;SDS_P2;PMS_P1;PMS_P2;Temp;Humidity;BMP_temperature;BMP_pressure;BME280_temperature;BME280_humidity;BME280_pressure;Samples;Min_cycle;Max_cycle;Signal;HPM_P1;HPM_P2
2021/03/25 00:01:24;;;;;;;21.50;10.98;;;1.00;95.50;;;;;;5125350;27;20038;-81
2021/03/25 00:03:54;;;;;;;16.05;10.07;;;1.10;95.70;;;;;;5132519;27;20054;-81
2021/03/25 00:06:24;;;;;;;14.93;11.82;;;1.00;95.50;;;;;;5134565;27;20051;-81
2021/03/25 00:08:52;;;;;;;21.23;13.15;;;1.00;96.20;;;;;;5133672;27;20773;-81
2021/03/25 00:11:21;;;;;;;18.08;11.88;;;1.00;96.50;;;;;;5134463;27;20050;-82
2021/03/25 00:13:49;;;;;;;17.98;10.70;;;1.00;96.40;;;;;;5133924;27;20066;-82
2021/03/25 00:16:17;;;;;;;19.90;11.65;;;1.00;96.50;;;;;;5134055;27;20039;-81
2021/03/25 00:18:44;;;;;;;16.90;9.45;;;1.00;96.60;;;;;;5134110;27;20051;-82
2021/03/25 00:21:14;;;;;;;18.23;13.40;;;0.80;95.10;;;;;;5132431;27;20035;-82
2021/03/25 00:23:44;;;;;;;14.57;11.40;;;0.60;95.80;;;;;;5133850;27;20494;-82
2021/03/25 00:26:11;;;;;;;22.42;12.95;;;0.50;96.50;;;;;;5133798;27;20550;-81
2021/03/25 00:28:38;;;;;;;16.83;11.57;;;0.70;97.20;;;;;;5132541;27;20510;-82
2021/03/25 00:31:06;;;;;;;20.27;11.23;;;0.50;96.70;;;;;;5123678;27;20035;-82
2021/03/25 00:33:33;;;;;;;21.35;13.00;;;0.50;95.90;;;;;;5131201;27;20050;-82
2021/03/25 00:36:01;;;;;;;20.60;13.48;;;0.50;95.90;;;;;;5133525;27;20419;-82
2021/03/25 00:38:28;;;;;;;21.33;13.45;;;0.50;96.40;;;;;;5131467;27;20047;-82
2021/03/25 00:40:56;;;;;;;24.85;11.30;;;0.50;96.70;;;;;;5132962;27;20046;-82
2021/03/25 00:43:24;;;;;;;23.50;14.30;;;0.50;96.70;;;;;;5133222;27;20047;-82
2021/03/25 00:45:52;;;;;;;22.98;12.27;;;0.50;96.90;;;;;;5133581;27;20052;-82
2021/03/25 00:48:24;;;;;;;21.33;14.13;;;0.50;97.20;;;;;;5133439;27;20395;-82
2021/03/25 00:51:00;;;;;;;20.75;14.05;;;0.50;97.50;;;;;;5115702;27;20058;-82
2021/03/25 00:53:33;;;;;;;21.48;13.02;;;0.50;97.70;;;;;;5133005;27;20051;-82
2021/03/25 00:56:03;;;;;;;14.88;10.23;;;0.50;97.80;;;;;;5133498;28;20047;-82
2021/03/25 00:58:32;;;;;;;18.30;11.57;;;0.50;97.90;;;;;;5114811;28;20491;-82
2021/03/25 01:01:03;;;;;;;15.38;11.38;;;0.60;98.60;;;;;;5132922;28;20039;-82
2021/03/25 01:03:31;;;;;;;22.13;13.05;;;0.70;98.10;;;;;;5133746;28;20058;-82
2021/03/25 01:05:58;;;;;;;20.33;12.93;;;0.50;97.50;;;;;;5131842;28;20067;-82
2021/03/25 01:08:26;;;;;;;15.82;10.25;;;0.50;97.40;;;;;;5114603;28;20557;-82
2021/03/25 01:11:22;;;;;;;15.85;10.82;;;0.50;97.30;;;;;;5114489;28;20043;-82
2021/03/25 01:13:53;;;;;;;17.50;10.90;;;0.30;95.10;;;;;;5132558;28;20062;-82
2021/03/25 01:16:34;;;;;;;18.13;11.52;;;0.00;95.50;;;;;;5133234;28;20031;-82
2021/03/25 01:19:06;;;;;;;17.88;11.35;;;-0.20;96.30;;;;;;5121570;28;20047;-82
2021/03/25 01:21:37;;;;;;;21.20;12.27;;;-0.20;96.80;;;;;;5114709;28;20043;-82
2021/03/25 01:24:09;;;;;;;21.38;12.35;;;-0.20;97.40;;;;;;5112618;28;20055;-91
2021/03/25 01:26:37;;;;;;;14.40;11.95;;;-0.20;97.90;;;;;;5132598;28;20048;-90
2021/03/25 01:29:07;;;;;;;16.38;11.32;;;-0.20;97.80;;;;;;5129054;28;20050;-91
2021/03/25 01:31:36;;;;;;;20.15;15.10;;;-0.20;98.00;;;;;;5132816;28;20055;-83
2021/03/25 01:34:08;;;;;;;22.47;16.87;;;-0.10;98.10;;;;;;5132856;28;20732;-82
2021/03/25 01:36:38;;;;;;;15.88;11.57;;;-0.10;98.10;;;;;;5132964;28;20062;-82
2021/03/25 01:39:05;;;;;;;21.83;12.13;;;0.00;98.00;;;;;;5133388;28;20058;-82
2021/03/25 01:41:35;;;;;;;11.25;9.55;;;0.00;98.10;;;;;;5114173;28;20031;-82
2021/03/25 01:44:04;;;;;;;16.30;10.13;;;0.10;97.90;;;;;;5133236;27;20054;-82
2021/03/25 01:46:38;;;;;;;15.23;9.82;;;0.10;97.80;;;;;;5135604;27;20050;-82
2021/03/25 01:49:10;;;;;;;14.70;9.02;;;0.10;97.70;;;;;;5135878;27;20058;-82
2021/03/25 01:52:17;;;;;;;15.02;11.82;;;0.20;97.70;;;;;;5114151;28;20047;-82
2021/03/25 01:54:51;;;;;;;12.77;10.25;;;0.10;97.70;;;;;;5111618;27;20044;-82
2021/03/25 01:57:26;;;;;;;11.98;8.77;;;0.20;97.80;;;;;;5094488;28;20044;-77
2021/03/25 02:00:34;;;;;;;10.40;8.52;;;0.10;97.70;;;;;;5085359;28;20048;-77
2021/03/25 02:03:09;;;;;;;14.07;9.95;;;-0.30;95.20;;;;;;5072548;28;20056;-79
2021/03/25 02:05:37;;;;;;;9.90;6.70;;;-0.50;97.00;;;;;;5074917;28;20040;-79
2021/03/25 02:08:49;;;;;;;9.57;6.85;;;-0.40;97.50;;;;;;5081054;28;20044;-79
2021/03/25 02:11:23;;;;;;;13.82;10.07;;;-0.40;97.50;;;;;;5062990;28;20376;-79
2021/03/25 02:14:28;;;;;;;13.77;9.98;;;-0.30;98.30;;;;;;5094839;28;20051;-79
2021/03/25 02:17:18;;;;;;;14.75;9.27;;;-0.20;98.20;;;;;;5055987;28;20049;-79
2021/03/25 02:20:48;;;;;;;10.65;7.35;;;-0.10;98.30;;;;;;5077288;28;20059;-79
2021/03/25 02:23:27;;;;;;;7.88;6.65;;;-0.30;95.40;;;;;;5072648;28;20059;-79
2021/03/25 02:26:06;;;;;;;10.00;7.03;;;-0.60;95.90;;;;;;5069626;28;20068;-79
2021/03/25 02:28:56;;;;;;;14.35;7.72;;;-0.60;97.00;;;;;;5071984;28;20506;-79
2021/03/25 02:31:27;;;;;;;11.30;8.43;;;-0.60;97.00;;;;;;5091072;28;20055;-79
2021/03/25 02:34:08;;;;;;;11.98;6.90;;;-0.60;97.40;;;;;;5071660;28;20397;-79
2021/03/25 02:36:51;;;;;;;9.57;8.68;;;-0.50;97.50;;;;;;5073617;28;20059;-79
2021/03/25 02:39:52;;;;;;;12.95;7.85;;;-0.40;97.40;;;;;;5074252;28;20534;-79
2021/03/25 02:43:16;;;;;;;12.90;9.27;;;-0.30;98.10;;;;;;5074753;28;20049;-79
2021/03/25 02:45:59;;;;;;;17.70;10.57;;;-0.20;98.90;;;;;;5063634;28;20032;-79
2021/03/25 02:48:29;;;;;;;16.67;10.57;;;-0.10;98.70;;;;;;5072371;28;20059;-79
2021/03/25 02:51:03;;;;;;;9.00;7.82;;;0.00;98.60;;;;;;5074792;28;20063;-79
2021/03/25 02:53:38;;;;;;;8.40;7.60;;;0.00;96.70;;;;;;5072260;28;20045;-80
2021/03/25 02:56:14;;;;;;;17.17;6.95;;;-0.30;96.20;;;;;;5093657;28;20044;-79
2021/03/25 02:58:47;;;;;;;9.65;8.15;;;-0.40;97.10;;;;;;5073689;28;20053;-77
2021/03/25 03:01:16;;;;;;;;;;;-0.40;97.40;;;;;;5064020;28;20544;-77
2021/03/25 03:04:08;;;;;;;9.75;6.72;;;-0.30;98.00;;;;;;5053058;28;20559;-77
2021/03/25 03:06:47;;;;;;;10.38;6.22;;;-0.30;97.90;;;;;;5047901;28;20505;-80
2021/03/25 03:09:37;;;;;;;7.40;5.43;;;-0.40;96.30;;;;;;5069571;28;20052;-79
2021/03/25 03:12:19;;;;;;;8.75;5.63;;;-0.60;96.10;;;;;;5063673;28;20053;-79
2021/03/25 03:15:01;;;;;;;7.40;6.57;;;-0.70;96.60;;;;;;5067294;28;20059;-79
2021/03/25 03:17:44;;;;;;;11.60;6.63;;;-0.60;97.00;;;;;;5052120;28;20045;-86
2021/03/25 03:20:59;;;;;;;16.75;5.65;;;-0.50;97.30;;;;;;5065382;28;20045;-86
2021/03/25 03:23:50;;;;;;;5.15;4.55;;;-0.50;97.60;;;;;;5068563;28;20045;-85
2021/03/25 03:26:28;;;;;;;5.40;4.65;;;-0.40;97.60;;;;;;5072037;28;20053;-85
2021/03/25 03:29:04;;;;;;;7.70;5.22;;;-0.30;97.70;;;;;;5069358;28;20048;-85
2021/03/25 03:31:49;;;;;;;6.10;4.95;;;-0.30;97.70;;;;;;5070609;28;20048;-85
2021/03/25 03:34:33;;;;;;;6.38;5.45;;;-0.30;97.60;;;;;;5054931;28;20048;-85
2021/03/25 03:37:19;;;;;;;8.05;3.92;;;-0.30;97.80;;;;;;5062483;28;20032;-85
2021/03/25 03:39:54;;;;;;;8.98;5.38;;;-0.20;97.90;;;;;;5071248;28;20048;-86
2021/03/25 03:42:36;;;;;;;5.05;4.57;;;-0.10;97.20;;;;;;5071371;28;20048;-85
2021/03/25 03:45:07;;;;;;;6.45;4.82;;;-0.20;96.70;;;;;;5071065;28;20029;-85
2021/03/25 03:47:39;;;;;;;5.10;3.45;;;-0.20;96.80;;;;;;5084276;28;20481;-86
2021/03/25 03:50:25;;;;;;;3.88;3.42;;;-0.30;96.50;;;;;;5072045;28;20048;-86
2021/03/25 03:52:54;;;;;;;6.63;3.22;;;-0.40;96.30;;;;;;5069091;28;20047;-85
2021/03/25 03:55:23;;;;;;;4.75;4.22;;;-0.50;96.50;;;;;;5071552;28;20477;-86
2021/03/25 03:57:54;;;;;;;5.40;3.90;;;-0.60;94.90;;;;;;5082975;28;20055;-87
2021/03/25 04:00:27;;;;;;;4.85;3.22;;;-0.70;96.60;;;;;;5088230;28;20048;-86
2021/03/25 04:03:37;;;;;;;4.43;3.97;;;-0.60;97.30;;;;;;5087414;28;20075;-86
2021/03/25 04:06:10;;;;;;;4.18;3.78;;;-0.50;97.60;;;;;;5092262;28;20048;-86
2021/03/25 04:09:08;;;;;;;4.85;2.92;;;-0.50;97.30;;;;;;5092406;28;20515;-86
2021/03/25 04:11:53;;;;;;;4.18;3.50;;;-0.50;95.50;;;;;;5092146;28;20114;-86
2021/03/25 04:14:32;;;;;;;5.68;2.65;;;-0.80;95.00;;;;;;5063051;28;20036;-86
2021/03/25 04:17:08;;;;;;;4.15;3.38;;;-0.90;96.00;;;;;;5089272;28;20044;-86
2021/03/25 04:19:43;;;;;;;4.00;3.67;;;-0.80;96.40;;;;;;5107784;28;20055;-85
2021/03/25 04:22:54;;;;;;;2.80;2.60;;;-0.80;96.30;;;;;;5059822;28;20052;-86
2021/03/25 04:25:27;;;;;;;3.67;3.17;;;-0.80;96.30;;;;;;5076383;28;20372;-86
2021/03/25 04:28:07;;;;;;;7.35;3.05;;;-0.70;96.00;;;;;;5092077;28;20047;-78
2021/03/25 04:30:40;;;;;;;5.03;3.50;;;-0.70;95.80;;;;;;5088241;28;20051;-77
2021/03/25 04:33:09;;;;;;;3.30;3.00;;;-0.60;96.10;;;;;;5104008;28;20047;-78
2021/03/25 04:35:41;;;;;;;5.90;3.65;;;-0.60;96.10;;;;;;5089079;28;20056;-77
2021/03/25 04:38:15;;;;;;;4.00;3.13;;;-0.50;96.20;;;;;;5112433;27;20046;-77
2021/03/25 04:40:42;;;;;;;3.47;3.17;;;-0.50;96.50;;;;;;5093854;28;20774;-77
2021/03/25 04:43:18;;;;;;;3.47;3.28;;;-0.50;96.70;;;;;;5084419;28;20056;-78
2021/03/25 04:46:02;;;;;;;3.88;3.00;;;-0.40;96.90;;;;;;5088006;28;20059;-77
2021/03/25 04:48:38;;;;;;;5.05;3.58;;;-0.30;96.60;;;;;;5088558;28;20048;-78
2021/03/25 04:51:09;;;;;;;3.65;2.70;;;-0.30;96.40;;;;;;5098665;28;20052;-77
2021/03/25 04:53:39;;;;;;;6.18;4.07;;;-0.20;96.20;;;;;;5072816;28;20722;-77
2021/03/25 04:56:15;;;;;;;3.72;2.53;;;-0.40;94.30;;;;;;5093841;28;20480;-78
2021/03/25 04:58:52;;;;;;;3.28;3.05;;;-0.50;94.90;;;;;;5081314;28;20497;-78
2021/03/25 05:01:25;;;;;;;5.40;4.05;;;-0.70;95.40;;;;;;5091566;28;20059;-78
2021/03/25 05:04:12;;;;;;;4.22;3.83;;;-0.80;95.80;;;;;;5086836;28;20057;-77
2021/03/25 05:07:04;;;;;;;5.03;3.83;;;-0.80;96.50;;;;;;5084266;28;20041;-77
2021/03/25 05:09:34;;;;;;;;;;;-0.60;97.10;;;;;;5088231;28;20484;-77
2021/03/25 05:12:03;;;;;;;3.28;2.83;;;-0.50;97.20;;;;;;5082545;28;19919;-77
2021/03/25 05:14:30;;;;;;;4.30;3.22;;;-0.40;96.70;;;;;;5092444;28;20052;-77
2021/03/25 05:17:31;;;;;;;3.13;2.58;;;-0.30;96.50;;;;;;5090940;28;20059;-77
2021/03/25 05:20:14;;;;;;;4.47;2.88;;;-0.20;95.80;;;;;;5070717;28;20055;-77
2021/03/25 05:22:51;;;;;;;3.47;3.17;;;-0.40;94.20;;;;;;5094154;28;20051;-77
2021/03/25 05:25:37;;;;;;;4.80;4.30;;;-0.50;94.40;;;;;;5099462;28;20047;-78
2021/03/25 05:28:26;;;;;;;3.45;2.97;;;-0.70;94.50;;;;;;5085843;28;20052;-78
2021/03/25 05:30:55;;;;;;;3.33;3.03;;;-0.70;95.80;;;;;;5088042;28;20052;-79
2021/03/25 05:33:27;;;;;;;7.93;3.60;;;-0.60;97.00;;;;;;5095920;28;20037;-78
2021/03/25 05:36:00;;;;;;;6.55;4.05;;;-0.50;96.90;;;;;;5094895;28;20044;-79
2021/03/25 05:38:28;;;;;;;3.17;2.83;;;-0.30;96.80;;;;;;5095279;28;20397;-79
2021/03/25 05:41:14;;;;;;;4.43;3.45;;;-0.10;96.30;;;;;;5094681;28;20044;-79
2021/03/25 05:44:02;;;;;;;3.13;2.92;;;0.10;95.80;;;;;;5062719;28;20123;-79
2021/03/25 05:46:46;;;;;;;3.28;2.97;;;0.10;94.00;;;;;;5077777;28;20067;-77
2021/03/25 05:49:54;;;;;;;3.38;3.17;;;-0.10;94.50;;;;;;5073827;28;20033;-78
2021/03/25 05:52:57;;;;;;;3.05;2.67;;;-0.10;96.00;;;;;;5065709;28;20040;-78
2021/03/25 05:56:01;;;;;;;3.22;2.92;;;0.10;96.00;;;;;;5095834;28;20048;-77
2021/03/25 05:58:49;;;;;;;3.72;3.40;;;0.50;94.60;;;;;;5087047;28;20484;-78
2021/03/25 06:01:32;;;;;;;2.17;1.98;;;0.90;92.70;;;;;;5107814;28;20037;-78
2021/03/25 06:04:02;;;;;;;4.60;3.38;;;1.20;92.20;;;;;;5077481;28;20055;-78
2021/03/25 06:07:02;;;;;;;3.08;2.78;;;1.40;91.80;;;;;;5094995;28;20066;-78
2021/03/25 06:09:43;;;;;;;3.80;2.92;;;1.40;91.80;;;;;;5075725;28;20040;-77
2021/03/25 06:12:34;;;;;;;3.05;2.78;;;1.70;91.00;;;;;;5059626;28;20630;-77
2021/03/25 06:15:34;;;;;;;4.43;4.00;;;1.70;90.80;;;;;;5092143;28;20044;-80
2021/03/25 06:18:16;;;;;;;5.20;2.63;;;1.90;90.30;;;;;;5072545;28;20505;-80
2021/03/25 06:21:03;;;;;;;3.33;2.80;;;2.20;88.30;;;;;;5081878;28;20062;-78
2021/03/25 06:23:39;;;;;;;2.90;2.63;;;2.50;86.60;;;;;;5095103;28;20056;-78
2021/03/25 06:26:30;;;;;;;5.38;3.15;;;2.90;84.70;;;;;;5092689;28;20404;-81
2021/03/25 06:29:03;;;;;;;3.45;3.15;;;3.30;82.30;;;;;;5087403;28;20087;-79
2021/03/25 06:31:44;;;;;;;10.82;4.85;;;3.80;78.70;;;;;;5062534;28;20664;-80
2021/03/25 06:34:30;;;;;;;4.55;2.65;;;4.60;76.30;;;;;;5085377;28;20052;-80
2021/03/25 06:37:27;;;;;;;3.67;3.38;;;5.50;73.50;;;;;;5094002;28;20510;-82
2021/03/25 06:40:10;;;;;;;5.80;4.53;;;6.30;67.30;;;;;;5094332;28;20074;-81
2021/03/25 06:42:47;;;;;;;3.35;2.63;;;6.70;64.40;;;;;;5083464;28;20055;-79
2021/03/25 06:45:35;;;;;;;4.15;2.30;;;7.30;63.30;;;;;;5090231;28;20057;-82
2021/03/25 06:48:17;;;;;;;3.65;2.95;;;7.70;59.40;;;;;;5073831;28;20053;-82
2021/03/25 06:50:44;;;;;;;;;;;7.90;58.50;;;;;;5075146;28;20059;-82
2021/03/25 06:53:23;;;;;;;4.15;3.42;;;8.20;58.60;;;;;;5094545;28;20288;-85
2021/03/25 06:55:59;;;;;;;3.65;2.38;;;8.80;58.10;;;;;;5075142;28;20056;-85
2021/03/25 06:58:36;;;;;;;2.92;2.70;;;9.60;55.60;;;;;;5094244;28;20054;-84
2021/03/25 07:01:09;;;;;;;2.83;2.60;;;10.00;52.10;;;;;;5112265;28;20099;-86
2021/03/25 07:03:37;;;;;;;3.58;2.22;;;9.90;53.00;;;;;;5115300;28;20048;-86
2021/03/25 07:06:05;;;;;;;2.05;1.85;;;10.20;54.50;;;;;;5107610;28;20047;-86
2021/03/25 07:08:33;;;;;;;4.25;2.70;;;10.40;53.40;;;;;;5093975;28;20676;-86
2021/03/25 07:11:10;;;;;;;2.83;2.50;;;10.80;52.80;;;;;;5114601;28;20052;-86
2021/03/25 07:13:55;;;;;;;3.55;2.30;;;11.00;52.20;;;;;;5114868;28;20044;-87
2021/03/25 07:16:23;;;;;;;3.63;2.97;;;11.30;51.50;;;;;;5094263;28;20044;-89
2021/03/25 07:18:57;;;;;;;;;;;11.70;50.60;;;;;;5111714;28;20040;-85
2021/03/25 07:21:38;;;;;;;2.45;2.22;;;11.80;50.00;;;;;;5110868;28;20279;-86
2021/03/25 07:24:25;;;;;;;2.35;2.13;;;12.30;47.40;;;;;;5099674;28;20052;-85
2021/03/25 07:27:04;;;;;;;2.15;1.95;;;12.60;47.20;;;;;;5094664;28;20056;-84
2021/03/25 07:29:35;;;;;;;4.35;2.45;;;13.00;44.50;;;;;;5107125;28;20435;-84
2021/03/25 07:32:05;;;;;;;6.82;1.77;;;13.80;44.00;;;;;;5114318;28;20060;-84
2021/03/25 07:34:42;;;;;;;3.05;2.20;;;15.30;41.80;;;;;;5114538;28;20058;-84
2021/03/25 07:37:11;;;;;;;2.58;2.13;;;15.90;38.00;;;;;;5093884;28;20051;-85
2021/03/25 07:39:49;;;;;;;2.17;1.70;;;15.20;40.80;;;;;;5075762;28;20051;-84
2021/03/25 07:42:33;;;;;;;3.17;2.35;;;14.00;43.90;;;;;;5074115;28;20048;-85
2021/03/25 07:45:21;;;;;;;3.78;2.55;;;13.50;42.50;;;;;;5092965;28;20040;-85
2021/03/25 07:47:52;;;;;;;4.22;2.38;;;13.70;42.60;;;;;;5075599;28;20051;-84
2021/03/25 07:50:22;;;;;;;2.15;2.03;;;14.60;42.60;;;;;;5094017;28;20052;-85
2021/03/25 07:52:50;;;;;;;2.30;2.10;;;15.30;41.60;;;;;;5059633;28;20032;-85
2021/03/25 07:55:28;;;;;;;6.43;2.85;;;15.50;39.70;;;;;;5093549;28;20209;-85
2021/03/25 07:57:57;;;;;;;2.05;1.85;;;16.50;39.00;;;;;;5093134;28;20052;-84
2021/03/25 08:00:32;;;;;;;5.10;2.53;;;17.60;36.40;;;;;;5082643;28;20046;-85
2021/03/25 08:03:21;;;;;;;3.45;2.50;;;17.20;37.10;;;;;;5105256;28;20063;-85
2021/03/25 08:05:52;;;;;;;4.18;2.72;;;17.40;35.80;;;;;;5092410;28;20047;-85
2021/03/25 08:08:37;;;;;;;3.40;2.63;;;17.40;36.50;;;;;;5092015;28;20463;-85
2021/03/25 08:11:21;;;;;;;3.05;2.47;;;16.20;38.50;;;;;;5105372;28;20060;-84
2021/03/25 08:14:27;;;;;;;2.63;2.35;;;16.50;39.10;;;;;;5092976;28;20048;-85
2021/03/25 08:17:25;;;;;;;6.32;2.40;;;15.60;41.60;;;;;;5111135;28;20047;-84
2021/03/25 08:20:16;;;;;;;4.10;2.70;;;15.70;39.10;;;;;;5092029;28;20048;-82
2021/03/25 08:23:10;;;;;;;3.35;2.80;;;14.80;42.10;;;;;;5074811;28;20052;-86
2021/03/25 08:25:55;;;;;;;3.90;3.50;;;14.70;43.60;;;;;;5044710;28;20036;-85
2021/03/25 08:28:45;;;;;;;2.65;2.33;;;15.00;44.30;;;;;;5084040;28;20046;-86
2021/03/25 08:31:39;;;;;;;6.82;3.85;;;16.20;41.70;;;;;;5078042;28;20047;-86
2021/03/25 08:34:47;;;;;;;5.25;3.60;;;16.20;41.10;;;;;;5077875;28;20047;-86
2021/03/25 08:37:31;;;;;;;6.88;2.88;;;17.20;39.50;;;;;;5111776;28;20044;-86
2021/03/25 08:40:40;;;;;;;3.08;2.72;;;18.30;36.10;;;;;;5094144;28;20051;-86
2021/03/25 08:43:21;;;;;;;4.78;2.45;;;17.80;36.90;;;;;;5017224;28;20044;-86
2021/03/25 08:45:58;;;;;;;2.67;2.47;;;16.90;37.20;;;;;;5093621;28;20044;-86
2021/03/25 08:49:01;;;;;;;3.35;2.33;;;16.50;37.70;;;;;;5074225;28;20047;-86
2021/03/25 08:51:35;;;;;;;6.38;2.50;;;17.10;37.00;;;;;;5064867;28;20520;-86
2021/03/25 08:54:16;;;;;;;3.67;2.58;;;17.30;37.10;;;;;;5110051;28;20048;-86
2021/03/25 08:56:48;;;;;;;3.65;2.13;;;16.90;36.70;;;;;;5110232;28;20048;-86
2021/03/25 08:59:35;;;;;;;3.08;2.47;;;16.60;40.20;;;;;;5117436;28;20052;-86
2021/03/25 09:02:31;;;;;;;3.88;2.60;;;16.10;39.80;;;;;;5085578;28;20134;-86
2021/03/25 09:05:20;;;;;;;4.20;3.03;;;15.00;42.40;;;;;;5074177;28;20056;-85
2021/03/25 09:07:49;;;;;;;3.65;3.35;;;15.60;39.50;;;;;;5099118;28;20052;-84
2021/03/25 09:10:39;;;;;;;7.53;2.55;;;16.40;39.90;;;;;;5112415;28;20056;-87
2021/03/25 09:13:22;;;;;;;3.65;2.67;;;16.50;37.40;;;;;;5091317;28;20055;-85
2021/03/25 09:15:52;;;;;;;3.50;3.13;;;15.60;41.20;;;;;;5091687;28;20059;-84
2021/03/25 09:18:29;;;;;;;3.53;2.83;;;14.40;44.30;;;;;;5091338;28;20048;-86
2021/03/25 09:21:10;;;;;;;4.53;2.88;;;13.60;46.40;;;;;;5095306;28;20054;-83
2021/03/25 09:24:02;;;;;;;6.97;3.55;;;12.90;50.30;;;;;;5098165;28;20059;-80
2021/03/25 09:26:59;;;;;;;4.93;3.63;;;12.80;50.40;;;;;;5084362;28;20063;-82
2021/03/25 09:29:33;;;;;;;4.60;3.10;;;12.60;50.00;;;;;;5090981;28;20051;-82
2021/03/25 09:32:02;;;;;;;11.02;3.42;;;12.60;51.80;;;;;;5070018;28;20404;-82
2021/03/25 09:34:49;;;;;;;5.35;3.50;;;12.70;52.20;;;;;;5090838;28;20488;-82
2021/03/25 09:37:28;;;;;;;5.00;3.25;;;13.00;50.60;;;;;;5096852;28;20392;-82
2021/03/25 09:40:05;;;;;;;3.97;3.17;;;13.30;50.40;;;;;;5105024;28;20056;-86
2021/03/25 09:42:32;;;;;;;4.43;3.15;;;13.30;51.50;;;;;;5099728;28;20047;-85
2021/03/25 09:45:29;;;;;;;6.38;3.58;;;13.30;50.90;;;;;;5106987;28;20047;-85
2021/03/25 09:48:07;;;;;;;6.50;4.07;;;13.40;48.80;;;;;;5091661;28;20052;-84
2021/03/25 09:50:36;;;;;;;6.00;4.22;;;13.60;47.40;;;;;;5082797;28;20836;-86
2021/03/25 09:53:22;;;;;;;6.05;4.00;;;13.50;49.20;;;;;;5091428;28;20054;-88
2021/03/25 09:56:24;;;;;;;6.20;4.07;;;13.60;49.80;;;;;;5110735;28;20067;-87
2021/03/25 09:58:52;;;;;;;8.13;4.15;;;13.40;50.50;;;;;;5084368;28;20052;-86
2021/03/25 10:01:54;;;;;;;9.63;4.85;;;13.50;49.10;;;;;;5085554;28;20044;-87
2021/03/25 10:04:34;;;;;;;7.32;3.70;;;13.80;47.10;;;;;;5094515;28;20039;-86
2021/03/25 10:07:24;;;;;;;7.22;4.70;;;13.80;46.60;;;;;;5080677;28;20040;-87
2021/03/25 10:09:58;;;;;;;11.05;4.00;;;13.90;46.90;;;;;;5091504;28;20066;-78
2021/03/25 10:13:03;;;;;;;9.07;6.63;;;13.80;48.30;;;;;;5105056;28;20052;-78
2021/03/25 10:15:31;;;;;;;7.50;5.07;;;13.90;48.30;;;;;;5102465;28;20063;-78
2021/03/25 10:18:31;;;;;;;7.10;4.88;;;13.90;45.40;;;;;;5096606;28;20051;-77
2021/03/25 10:21:15;;;;;;;7.10;5.32;;;13.80;45.90;;;;;;5103147;28;20036;-79
2021/03/25 10:23:54;;;;;;;8.70;5.68;;;14.10;47.90;;;;;;5103525;28;20067;-79
2021/03/25 10:26:38;;;;;;;7.57;4.57;;;14.20;46.90;;;;;;5083474;28;20052;-79
2021/03/25 10:29:17;;;;;;;8.05;5.18;;;14.30;47.10;;;;;;5103383;28;20043;-79
2021/03/25 10:31:49;;;;;;;7.40;5.28;;;14.30;44.50;;;;;;5102301;28;20507;-81
2021/03/25 10:34:30;;;;;;;5.65;4.80;;;14.30;44.50;;;;;;5106397;28;20043;-81
2021/03/25 10:37:19;;;;;;;10.70;5.75;;;14.40;48.20;;;;;;5103570;28;20399;-79
2021/03/25 10:39:48;;;;;;;7.97;4.35;;;14.70;44.20;;;;;;5115785;27;20047;-79
2021/03/25 10:42:38;;;;;;;9.52;4.97;;;14.40;45.60;;;;;;5087915;28;20133;-79
2021/03/25 10:45:23;;;;;;;7.35;5.30;;;14.40;46.50;;;;;;5083024;28;20385;-79
2021/03/25 10:48:03;;;;;;;9.30;6.28;;;14.50;46.70;;;;;;5090741;28;20048;-79
2021/03/25 10:50:57;;;;;;;9.07;5.57;;;14.70;49.80;;;;;;5082095;28;20381;-79
2021/03/25 10:53:34;;;;;;;6.82;4.78;;;14.60;46.00;;;;;;5082984;27;20047;-79
2021/03/25 10:56:29;;;;;;;12.80;6.50;;;14.50;44.40;;;;;;5091050;28;20419;-79
2021/03/25 10:59:01;;;;;;;7.50;4.82;;;14.40;47.80;;;;;;5105520;28;20522;-80
2021/03/25 11:01:30;;;;;;;9.55;5.20;;;14.70;48.90;;;;;;5093033;28;20408;-79
2021/03/25 11:04:13;;;;;;;15.23;6.38;;;14.90;47.40;;;;;;5092084;28;20059;-80
2021/03/25 11:06:41;;;;;;;9.13;7.30;;;14.90;44.80;;;;;;5082750;28;20403;-79
2021/03/25 11:09:23;;;;;;;10.13;6.68;;;15.10;44.10;;;;;;5096649;28;20487;-78
2021/03/25 11:11:52;;;;;;;;;;;15.10;45.60;;;;;;5103143;28;20446;-78
2021/03/25 11:17:48;;;;;;;9.65;6.22;;;14.80;49.50;;;;;;5099212;28;20036;-83
2021/03/25 11:20:21;;;;;;;13.52;9.20;;;15.00;44.90;;;;;;5090176;27;20042;-84
2021/03/25 11:22:51;;;;;;;10.95;5.90;;;14.60;42.40;;;;;;5111544;27;20047;-84
2021/03/25 11:25:40;;;;;;;11.10;7.68;;;14.40;41.10;;;;;;5096308;28;20282;-87
2021/03/25 11:28:20;;;;;;;7.47;4.85;;;14.90;47.40;;;;;;5102645;28;20056;-88
2021/03/25 11:31:14;;;;;;;11.23;6.75;;;15.30;43.20;;;;;;5093670;28;20423;-83
2021/03/25 11:33:56;;;;;;;11.57;7.82;;;15.20;43.40;;;;;;5093845;28;20059;-87
2021/03/25 11:37:03;;;;;;;;;;;;;;;;;;;;;
2021/03/25 11:40:12;;;;;;;7.55;6.00;;;15.00;40.00;;;;;;5100441;27;20058;-84
2021/03/25 11:42:44;;;;;;;9.63;5.82;;;15.10;38.10;;;;;;5112915;27;20058;-85
2021/03/25 11:45:41;;;;;;;12.10;5.30;;;15.20;42.10;;;;;;5111566;27;20396;-85
2021/03/25 11:52:04;;;;;;;9.57;4.88;;;15.50;42.40;;;;;;5081698;27;20043;-85
2021/03/25 11:54:38;;;;;;;10.48;5.32;;;15.50;38.00;;;;;;5088801;27;20059;-73
2021/03/25 11:57:22;;;;;;;7.72;4.13;;;15.60;35.90;;;;;;5103658;27;20066;-73
2021/03/25 12:00:03;;;;;;;12.15;6.13;;;15.50;38.50;;;;;;5099108;28;20064;-73
2021/03/25 12:02:38;;;;;;;7.40;4.90;;;15.60;39.30;;;;;;5100114;28;20396;-73
2021/03/25 12:05:29;;;;;;;9.15;6.40;;;15.40;43.60;;;;;;5099888;28;20046;-76
2021/03/25 12:08:17;;;;;;;6.60;4.70;;;15.60;37.40;;;;;;5101836;28;20055;-74
2021/03/25 12:10:45;;;;;;;7.93;5.00;;;15.50;38.00;;;;;;5104200;28;20675;-81
2021/03/25 12:13:13;;;;;;;6.18;4.72;;;15.60;37.80;;;;;;5104811;28;20055;-77
2021/03/25 12:15:41;;;;;;;9.00;5.03;;;15.70;36.80;;;;;;5102981;28;20060;-75
2021/03/25 12:18:38;;;;;;;6.18;4.57;;;15.50;36.30;;;;;;5103534;28;20047;-75
2021/03/25 12:21:10;;;;;;;9.45;5.40;;;15.50;45.10;;;;;;5103757;28;20040;-75
2021/03/25 12:23:40;;;;;;;6.68;4.75;;;16.10;40.60;;;;;;5100581;28;20063;-74
2021/03/25 12:26:15;;;;;;;12.45;5.15;;;15.90;38.80;;;;;;5099582;28;20507;-75
2021/03/25 12:28:43;;;;;;;7.03;4.45;;;15.60;36.40;;;;;;5110778;27;20036;-82
2021/03/25 12:31:23;;;;;;;8.55;5.53;;;15.80;38.60;;;;;;5109415;28;20051;-81
2021/03/25 12:34:13;;;;;;;8.40;4.93;;;15.90;35.80;;;;;;5104232;28;20043;-76
2021/03/25 12:36:42;;;;;;;9.82;6.38;;;15.90;41.50;;;;;;5098891;28;20040;-74
2021/03/25 12:39:26;;;;;;;10.15;5.30;;;15.90;35.80;;;;;;5102450;28;20047;-75
2021/03/25 12:41:57;;;;;;;10.50;5.15;;;15.70;36.00;;;;;;5100237;28;20396;-77
2021/03/25 12:44:25;;;;;;;6.20;4.30;;;15.60;38.20;;;;;;5101631;28;20403;-77
2021/03/25 12:47:08;;;;;;;7.25;5.20;;;15.90;36.70;;;;;;5091581;28;20047;-74
2021/03/25 12:49:58;;;;;;;6.32;3.60;;;15.90;34.70;;;;;;5101695;28;20040;-77
2021/03/25 12:52:26;;;;;;;4.63;3.60;;;16.00;36.00;;;;;;5101834;28;20054;-74
2021/03/25 12:54:53;;;;;;;13.95;5.35;;;16.20;36.10;;;;;;5098315;28;20056;-74
2021/03/25 12:57:27;;;;;;;8.00;4.82;;;16.10;42.00;;;;;;5096062;28;20047;-74
2021/03/25 12:59:58;;;;;;;9.95;5.35;;;15.90;41.00;;;;;;5082209;28;20047;-74
2021/03/25 13:02:28;;;;;;;9.20;5.65;;;15.60;38.20;;;;;;5100072;28;20672;-74
2021/03/25 13:04:55;;;;;;;7.25;5.03;;;15.70;37.80;;;;;;5097750;28;20032;-73
2021/03/25 13:07:23;;;;;;;12.13;6.03;;;15.90;38.00;;;;;;5098820;28;20674;-73
2021/03/25 13:09:50;;;;;;;6.03;4.80;;;15.90;36.20;;;;;;5099048;28;20036;-74
2021/03/25 13:12:25;;;;;;;8.13;5.43;;;15.70;36.70;;;;;;5101233;28;20040;-74
2021/03/25 13:14:53;;;;;;;7.15;5.60;;;15.80;37.30;;;;;;5100462;28;20074;-75
2021/03/25 13:17:21;;;;;;;9.98;5.88;;;15.60;38.40;;;;;;5099808;28;20043;-74
2021/03/25 13:20:04;;;;;;;11.70;5.57;;;15.60;41.20;;;;;;5102081;28;20051;-74
2021/03/25 13:22:32;;;;;;;8.20;5.60;;;15.60;38.20;;;;;;5098627;28;20059;-76
2021/03/25 13:24:59;;;;;;;7.18;6.45;;;15.70;39.80;;;;;;5099277;28;20062;-74
2021/03/25 13:27:27;;;;;;;8.57;4.93;;;15.70;36.50;;;;;;5099810;28;20063;-73
2021/03/25 13:29:54;;;;;;;8.25;4.22;;;16.00;37.60;;;;;;5098719;28;20043;-72
2021/03/25 13:32:22;;;;;;;11.77;4.68;;;16.20;36.40;;;;;;5104734;28;20044;-73
2021/03/25 13:34:50;;;;;;;12.20;6.65;;;16.30;36.30;;;;;;5106359;28;20404;-73
2021/03/25 13:37:19;;;;;;;10.95;6.15;;;16.30;35.10;;;;;;5101832;28;20043;-72
2021/03/25 13:39:47;;;;;;;9.45;4.88;;;16.30;37.00;;;;;;5098308;28;20052;-73
2021/03/25 13:42:16;;;;;;;9.57;5.60;;;16.50;35.60;;;;;;5106547;28;20048;-73
2021/03/25 13:44:44;;;;;;;11.13;4.88;;;16.50;35.30;;;;;;5105184;27;20035;-75
2021/03/25 13:47:11;;;;;;;16.15;6.97;;;16.60;35.60;;;;;;5109303;28;20058;-73
2021/03/25 13:49:39;;;;;;;8.65;5.72;;;16.70;37.70;;;;;;5103761;28;20088;-73
2021/03/25 13:52:07;;;;;;;11.05;6.68;;;16.50;36.00;;;;;;5106959;28;20047;-74
2021/03/25 13:54:34;;;;;;;12.95;8.32;;;16.50;38.00;;;;;;5117881;27;20043;-74
2021/03/25 13:57:02;;;;;;;13.57;7.03;;;16.60;38.50;;;;;;5105757;28;20056;-75